Time;durP1;ratioP1;P1;durP2;ratioP2;P2;SDS_P1;SDS_P2;PMS_P1;PMS_P2;Temp;Humidity;BMP_temperature;BMP_pressure;BME280_temperature;BME280_humidity;BME280_pressure;Samples;Min_cycle;Max_cycle;Signal;HPM_P1;HPM_P2
2021/06/11 00:00:10;;;;;;;15.15;12.93;;;14.80;99.90;;;;;;5070338;28;20083;-81
2021/06/11 07:32:44;;;;;;;12.80;10.38;;;16.80;99.90;;;;;;5120480;23;20049;-83
2021/06/11 07:35:13;;;;;;;12.25;10.93;;;16.80;99.90;;;;;;5031336;28;20088;-82
2021/06/11 07:37:41;;;;;;;13.48;11.05;;;16.90;99.90;;;;;;5014056;28;20053;-82
2021/06/11 07:40:10;;;;;;;10.10;9.05;;;16.90;99.90;;;;;;5014316;28;20104;-82
2021/06/11 07:42:37;;;;;;;13.00;10.35;;;17.00;99.90;;;;;;5014798;28;20053;-82
2021/06/11 07:45:06;;;;;;;10.55;9.45;;;17.20;99.90;;;;;;5025879;28;20072;-82
2021/06/11 07:47:34;;;;;;;10.00;8.60;;;17.30;99.90;;;;;;5032681;28;20088;-82
2021/06/11 07:50:02;;;;;;;9.57;8.57;;;17.30;99.90;;;;;;5016100;28;20069;-82
2021/06/11 07:52:31;;;;;;;9.70;8.55;;;17.30;99.90;;;;;;5014948;28;20050;-82
2021/06/11 07:54:58;;;;;;;11.50;9.48;;;17.30;99.90;;;;;;5033689;28;20077;-83
2021/06/11 07:57:25;;;;;;;10.13;9.13;;;17.30;99.90;;;;;;5011978;28;20045;-82
2021/06/11 07:59:52;;;;;;;9.30;8.38;;;17.30;99.90;;;;;;5012934;28;20049;-82
2021/06/11 08:02:19;;;;;;;10.38;8.63;;;17.20;99.90;;;;;;5015399;28;20834;-82
2021/06/11 08:04:45;;;;;;;9.75;8.55;;;17.30;99.90;;;;;;5015643;28;20053;-82
2021/06/11 08:07:13;;;;;;;9.55;8.55;;;17.30;99.90;;;;;;5004132;28;20511;-82
2021/06/11 08:09:40;;;;;;;9.73;8.70;;;17.40;99.90;;;;;;5014696;28;20103;-83
2021/06/11 08:12:08;;;;;;;10.23;9.07;;;17.50;99.90;;;;;;5031455;28;20091;-82
2021/06/11 08:14:35;;;;;;;8.38;7.57;;;17.60;99.90;;;;;;5014107;28;20416;-85
2021/06/11 08:17:02;;;;;;;9.02;7.80;;;17.50;99.90;;;;;;5024843;28;20057;-82
2021/06/11 08:19:29;;;;;;;8.63;7.43;;;17.50;99.90;;;;;;5031294;28;20122;-82
2021/06/11 08:21:55;;;;;;;7.88;7.07;;;17.50;99.90;;;;;;5015817;28;20051;-82
2021/06/11 08:24:22;;;;;;;7.55;6.95;;;17.70;99.90;;;;;;5030952;28;20116;-83
2021/06/11 08:26:49;;;;;;;5.60;5.10;;;17.60;99.90;;;;;;5013572;28;20049;-83
2021/06/11 08:29:16;;;;;;;6.00;5.13;;;17.60;99.90;;;;;;5028736;28;20045;-82
2021/06/11 08:31:44;;;;;;;5.55;4.00;;;17.60;99.90;;;;;;5012068;28;20080;-84
2021/06/11 08:34:11;;;;;;;4.22;3.85;;;17.70;99.90;;;;;;5012971;28;20512;-83
2021/06/11 08:36:38;;;;;;;5.47;3.92;;;17.90;99.90;;;;;;5015718;28;20045;-81
2021/06/11 08:39:05;;;;;;;3.42;3.13;;;18.00;99.90;;;;;;5011377;28;20119;-82
2021/06/11 08:41:33;;;;;;;3.13;2.80;;;18.10;99.90;;;;;;5029602;28;20069;-83
2021/06/11 08:44:00;;;;;;;3.20;2.92;;;18.20;99.90;;;;;;5014062;28;20142;-82
2021/06/11 08:46:27;;;;;;;3.30;3.00;;;18.30;99.90;;;;;;5029056;28;20515;-82
2021/06/11 08:48:57;;;;;;;3.38;3.08;;;18.30;99.90;;;;;;5029089;28;20057;-83
2021/06/11 08:51:24;;;;;;;3.35;2.83;;;18.30;99.90;;;;;;5010237;28;20054;-82
2021/06/11 08:53:51;;;;;;;3.45;2.72;;;18.40;99.90;;;;;;5032348;28;20045;-83
2021/06/11 08:56:18;;;;;;;2.80;2.55;;;18.50;99.90;;;;;;5028054;28;20462;-83
2021/06/11 08:58:44;;;;;;;2.85;2.65;;;18.60;99.90;;;;;;5030873;28;20046;-82
2021/06/11 09:01:11;;;;;;;3.50;2.72;;;18.60;99.90;;;;;;5031133;28;20088;-83
2021/06/11 09:03:42;;;;;;;3.22;2.47;;;18.70;99.90;;;;;;5032895;28;20055;-83
2021/06/11 09:06:17;;;;;;;2.78;2.50;;;18.80;99.90;;;;;;5011785;28;20143;-82
2021/06/11 09:08:51;;;;;;;3.30;3.00;;;18.80;99.90;;;;;;5030537;28;20111;-83
2021/06/11 09:11:32;;;;;;;3.17;2.88;;;18.90;99.90;;;;;;5029680;28;20470;-83
2021/06/11 09:14:05;;;;;;;3.47;3.17;;;18.90;99.90;;;;;;5013915;28;20045;-84
2021/06/11 09:16:48;;;;;;;3.92;3.60;;;19.00;99.90;;;;;;5010861;28;20037;-81
2021/06/11 09:19:19;;;;;;;4.70;3.28;;;19.10;99.90;;;;;;5030837;28;20046;-83
2021/06/11 09:21:51;;;;;;;4.78;3.00;;;19.10;99.90;;;;;;5015125;28;20083;-83
2021/06/11 09:26:59;;;;;;;3.72;3.42;;;19.30;99.90;;;;;;5024413;28;20053;-82
2021/06/11 09:29:38;;;;;;;3.65;3.30;;;19.30;99.90;;;;;;5011373;28;20534;-83
2021/06/11 09:32:19;;;;;;;5.10;3.50;;;19.30;99.90;;;;;;5010116;28;20069;-83
2021/06/11 09:34:49;;;;;;;3.63;3.22;;;19.30;99.90;;;;;;5008469;28;20527;-83
2021/06/11 09:37:19;;;;;;;4.70;3.92;;;19.30;99.90;;;;;;5008565;28;20077;-82
2021/06/11 09:39:52;;;;;;;4.47;4.07;;;19.30;99.90;;;;;;5011233;28;20050;-82
2021/06/11 09:42:25;;;;;;;4.45;4.05;;;19.40;99.90;;;;;;5008510;28;20046;-84
2021/06/11 09:45:14;;;;;;;4.22;3.50;;;19.50;99.90;;;;;;5004077;28;20066;-83
2021/06/11 09:47:51;;;;;;;4.85;4.38;;;19.50;99.90;;;;;;5001722;28;20412;-82
2021/06/11 09:50:20;;;;;;;4.82;4.00;;;19.50;99.90;;;;;;5007902;28;20054;-83
2021/06/11 09:53:26;;;;;;;4.65;3.70;;;19.60;99.90;;;;;;4996519;28;20050;-83
2021/06/11 09:55:54;;;;;;;5.35;3.88;;;19.70;99.90;;;;;;4894526;29;20143;-83
2021/06/11 09:58:21;;;;;;;4.38;3.53;;;19.80;99.90;;;;;;4913095;29;20578;-84
2021/06/11 10:00:53;;;;;;;4.60;4.20;;;20.00;99.90;;;;;;4909468;29;20586;-88
2021/06/11 10:03:37;;;;;;;4.38;3.97;;;20.10;99.90;;;;;;4911799;29;20558;-83
2021/06/11 10:06:09;;;;;;;4.00;3.45;;;20.20;99.90;;;;;;4909030;29;20057;-83
2021/06/11 10:08:37;;;;;;;3.42;3.13;;;20.40;99.90;;;;;;4907043;29;20050;-83
2021/06/11 10:11:07;;;;;;;4.05;3.75;;;20.50;99.90;;;;;;4912555;29;20119;-83
2021/06/11 10:13:49;;;;;;;4.80;3.55;;;20.70;99.90;;;;;;4852348;29;20125;-84
2021/06/11 10:16:20;;;;;;;4.07;3.60;;;20.70;99.90;;;;;;4838138;29;20118;-84
2021/06/11 10:18:49;;;;;;;4.10;3.42;;;20.70;99.90;;;;;;4843256;29;20065;-83
2021/06/11 10:21:16;;;;;;;3.63;2.72;;;20.70;99.90;;;;;;4821331;29;20510;-83
2021/06/11 10:23:43;;;;;;;3.88;3.33;;;20.80;99.90;;;;;;4833920;29;20049;-83
2021/06/11 10:26:12;;;;;;;5.80;3.90;;;20.80;99.90;;;;;;4841739;29;20073;-84
2021/06/11 10:28:42;;;;;;;4.20;3.80;;;20.80;99.90;;;;;;4839795;29;20077;-83
2021/06/11 10:31:15;;;;;;;5.00;3.78;;;21.00;99.90;;;;;;4876511;28;20107;-83
2021/06/11 10:33:43;;;;;;;3.75;3.45;;;21.10;99.90;;;;;;4943737;28;20525;-83
2021/06/11 10:36:25;;;;;;;3.75;3.25;;;21.10;99.90;;;;;;4938924;29;20078;-83
2021/06/11 10:39:00;;;;;;;4.22;3.40;;;21.30;99.90;;;;;;4934366;29;20060;-83
2021/06/11 10:41:27;;;;;;;3.83;3.28;;;21.40;99.90;;;;;;4935796;28;20145;-83
2021/06/11 10:43:54;;;;;;;3.70;3.33;;;21.30;99.90;;;;;;4951372;28;20046;-83
2021/06/11 10:46:31;;;;;;;3.78;3.47;;;21.40;99.90;;;;;;4933233;29;20078;-83
2021/06/11 10:49:06;;;;;;;3.53;3.22;;;21.50;99.90;;;;;;4932082;29;20054;-86
2021/06/11 10:51:39;;;;;;;5.47;3.17;;;21.50;99.90;;;;;;4992261;28;20484;-83
2021/06/11 10:54:28;;;;;;;3.65;3.00;;;21.60;99.90;;;;;;5009119;28;20382;-83
2021/06/11 10:56:59;;;;;;;3.10;2.75;;;21.60;99.90;;;;;;5005134;28;20046;-83
2021/06/11 10:59:37;;;;;;;3.95;2.63;;;21.70;99.90;;;;;;4996380;28;20046;-83
2021/06/11 11:02:06;;;;;;;3.03;2.42;;;21.70;99.90;;;;;;5001386;28;20050;-83
2021/06/11 11:04:43;;;;;;;2.70;2.42;;;21.80;99.90;;;;;;4998205;28;20057;-83
2021/06/11 11:07:27;;;;;;;2.38;2.15;;;22.00;99.90;;;;;;4991691;28;20045;-84
2021/06/11 11:10:04;;;;;;;2.67;2.10;;;22.10;99.90;;;;;;4997548;28;20054;-83
2021/06/11 11:13:04;;;;;;;2.80;2.17;;;22.30;99.90;;;;;;5000902;28;20046;-82
2021/06/11 11:15:35;;;;;;;2.50;2.30;;;22.30;99.90;;;;;;5001146;28;20054;-83
2021/06/11 11:18:08;;;;;;;2.70;2.42;;;22.20;99.90;;;;;;4996085;28;20070;-82
2021/06/11 11:20:37;;;;;;;2.60;2.10;;;22.00;99.90;;;;;;4999439;28;20126;-82
2021/06/11 11:23:13;;;;;;;4.70;2.10;;;22.10;99.90;;;;;;5000474;28;20050;-83
2021/06/11 11:25:42;;;;;;;2.20;2.00;;;22.20;99.90;;;;;;5013124;28;20050;-83
2021/06/11 11:28:11;;;;;;;3.55;2.17;;;22.40;99.90;;;;;;5012247;28;20046;-83
2021/06/11 11:30:39;;;;;;;2.90;1.90;;;22.50;99.90;;;;;;5007799;28;20132;-84
2021/06/11 11:33:07;;;;;;;3.88;1.80;;;22.70;99.90;;;;;;5030737;28;20454;-83
2021/06/11 11:35:37;;;;;;;2.10;1.90;;;22.80;99.90;;;;;;5012981;28;20439;-83
2021/06/11 11:38:07;;;;;;;2.17;1.98;;;22.90;99.90;;;;;;5008631;28;20080;-83
2021/06/11 11:40:35;;;;;;;2.28;2.08;;;23.00;99.90;;;;;;5015171;28;20455;-83
2021/06/11 11:43:03;;;;;;;1.80;1.70;;;22.90;99.90;;;;;;5015913;28;20077;-84
2021/06/11 11:45:32;;;;;;;2.53;1.60;;;22.90;99.90;;;;;;5032726;28;20041;-84
2021/06/11 11:48:03;;;;;;;1.58;1.45;;;22.90;99.90;;;;;;5035091;28;20106;-83
2021/06/11 11:50:32;;;;;;;2.53;1.85;;;23.00;99.90;;;;;;5038944;28;20528;-84
2021/06/11 11:52:59;;;;;;;2.95;1.88;;;23.10;99.90;;;;;;5014245;28;20053;-84
2021/06/11 11:55:27;;;;;;;3.22;1.50;;;23.20;99.90;;;;;;5030430;28;20361;-84
2021/06/11 11:57:54;;;;;;;2.47;2.15;;;23.30;99.90;;;;;;5012308;28;20057;-86
2021/06/11 12:00:22;;;;;;;2.70;1.80;;;23.30;99.90;;;;;;5015472;28;20054;-85
2021/06/11 12:02:49;;;;;;;2.17;1.70;;;23.30;99.90;;;;;;5032024;28;20084;-84
2021/06/11 12:05:16;;;;;;;2.28;1.60;;;23.40;99.90;;;;;;5011944;28;20041;-84
2021/06/11 12:07:43;;;;;;;2.30;1.67;;;23.40;99.90;;;;;;5012237;28;20073;-84
2021/06/11 12:10:11;;;;;;;2.10;1.10;;;23.60;99.90;;;;;;5031636;28;20057;-84
2021/06/11 12:12:38;;;;;;;1.63;1.50;;;23.50;99.90;;;;;;5031740;28;20393;-83
2021/06/11 12:15:05;;;;;;;1.73;1.38;;;23.50;99.90;;;;;;5013575;28;20054;-84
2021/06/11 12:17:32;;;;;;;1.40;1.17;;;23.50;99.90;;;;;;5023021;28;20088;-83
2021/06/11 12:19:59;;;;;;;1.58;1.10;;;23.50;99.90;;;;;;5018698;28;20500;-83
2021/06/11 12:22:27;;;;;;;1.58;1.48;;;23.60;99.90;;;;;;4995965;28;20465;-83
2021/06/11 12:24:53;;;;;;;1.30;1.20;;;23.70;99.90;;;;;;5028296;28;20507;-85
2021/06/11 12:27:20;;;;;;;2.67;1.23;;;23.60;99.90;;;;;;5012865;28;20512;-85
2021/06/11 12:29:47;;;;;;;1.48;1.10;;;23.60;99.90;;;;;;5029699;28;20049;-84
2021/06/11 12:32:14;;;;;;;3.08;1.30;;;23.70;99.90;;;;;;5028935;28;20455;-83
2021/06/11 12:34:42;;;;;;;1.75;1.42;;;23.60;99.90;;;;;;5014644;28;20107;-84
2021/06/11 12:37:09;;;;;;;1.30;1.20;;;23.60;99.90;;;;;;5014210;28;20155;-85
2021/06/11 12:39:36;;;;;;;1.50;1.20;;;23.50;99.90;;;;;;5031072;28;20091;-83
2021/06/11 12:42:13;;;;;;;1.13;1.02;;;23.50;99.90;;;;;;5013920;28;20504;-83
2021/06/11 12:44:41;;;;;;;0.75;0.70;;;23.40;99.90;;;;;;5026885;28;20480;-88
2021/06/11 12:47:12;;;;;;;1.93;0.93;;;23.50;99.90;;;;;;5011480;28;20053;-84
2021/06/11 12:49:40;;;;;;;1.77;0.85;;;23.50;99.90;;;;;;5015075;28;20140;-84
2021/06/11 12:52:08;;;;;;;1.00;0.80;;;23.60;99.90;;;;;;5014041;28;20077;-84
2021/06/11 12:54:35;;;;;;;0.85;0.80;;;23.70;99.90;;;;;;5025728;28;20077;-84
2021/06/11 12:57:03;;;;;;;1.25;1.00;;;23.90;99.90;;;;;;5009196;28;20096;-84
2021/06/11 12:59:31;;;;;;;1.43;1.10;;;23.90;99.90;;;;;;5030531;28;20042;-86
2021/06/11 13:01:58;;;;;;;2.65;1.10;;;24.00;99.90;;;;;;5013211;28;20284;-83
2021/06/11 13:04:25;;;;;;;1.05;0.70;;;23.90;99.90;;;;;;5013087;28;20049;-83
2021/06/11 13:06:52;;;;;;;1.50;0.80;;;23.80;99.90;;;;;;5033003;28;20049;-84
2021/06/11 13:09:19;;;;;;;0.93;0.82;;;23.80;99.90;;;;;;5013978;28;20077;-83
2021/06/11 13:11:46;;;;;;;1.38;0.90;;;23.80;99.90;;;;;;5029753;28;20400;-82
2021/06/11 13:14:12;;;;;;;1.00;0.90;;;23.80;99.90;;;;;;5013745;28;20045;-83
2021/06/11 13:16:40;;;;;;;1.63;1.00;;;23.80;99.90;;;;;;5030394;28;20536;-83
2021/06/11 13:19:07;;;;;;;2.00;0.90;;;23.90;99.90;;;;;;5013561;28;20111;-84
2021/06/11 13:21:34;;;;;;;1.02;0.80;;;23.90;99.90;;;;;;5030045;28;20431;-84
2021/06/11 13:24:06;;;;;;;1.02;0.80;;;23.90;99.90;;;;;;5026412;28;20045;-84
2021/06/11 13:26:34;;;;;;;1.70;1.00;;;24.00;99.90;;;;;;5012368;28;20049;-84
2021/06/11 13:29:01;;;;;;;2.67;1.00;;;24.00;99.90;;;;;;5028654;28;20523;-85
2021/06/11 13:31:28;;;;;;;3.60;0.80;;;24.00;99.90;;;;;;5010619;28;20111;-83
2021/06/11 13:33:55;;;;;;;1.17;0.65;;;24.00;99.90;;;;;;5012962;28;20054;-84
2021/06/11 13:36:22;;;;;;;4.30;1.13;;;24.10;99.90;;;;;;5010250;28;20099;-85
2021/06/11 13:38:52;;;;;;;1.33;0.77;;;24.10;99.90;;;;;;5013930;28;20111;-87
2021/06/11 13:41:21;;;;;;;2.05;0.80;;;24.10;99.90;;;;;;5010694;28;20046;-86
2021/06/11 13:43:49;;;;;;;0.90;0.60;;;24.10;99.90;;;;;;5012842;28;20568;-84
2021/06/11 13:46:16;;;;;;;0.63;0.60;;;24.10;99.90;;;;;;5030274;28;20053;-84
2021/06/11 13:48:44;;;;;;;0.65;0.65;;;24.30;99.90;;;;;;5012929;28;20084;-83
2021/06/11 13:51:12;;;;;;;1.30;0.52;;;24.20;99.90;;;;;;5009375;28;20562;-84
2021/06/11 13:53:39;;;;;;;0.68;0.40;;;24.30;99.90;;;;;;5012434;28;20045;-85
2021/06/11 13:56:06;;;;;;;0.57;0.45;;;24.30;99.90;;;;;;5030076;28;20111;-84
2021/06/11 13:58:32;;;;;;;1.80;0.60;;;24.30;99.90;;;;;;5011970;28;20041;-85
2021/06/11 14:01:00;;;;;;;1.27;0.32;;;24.30;99.90;;;;;;5013340;28;20504;-84
2021/06/11 14:03:27;;;;;;;0.60;0.60;;;24.50;99.90;;;;;;5029097;28;20107;-84
2021/06/11 14:05:54;;;;;;;1.33;0.50;;;24.50;99.90;;;;;;5029530;28;20053;-84
2021/06/11 14:08:21;;;;;;;1.35;0.60;;;24.60;99.90;;;;;;5013052;28;20080;-84
2021/06/11 14:10:48;;;;;;;0.60;0.40;;;24.60;99.90;;;;;;5011944;28;20459;-84
2021/06/11 14:13:14;;;;;;;1.65;0.50;;;24.70;99.90;;;;;;5029577;28;20057;-84
2021/06/11 14:15:41;;;;;;;1.02;0.65;;;24.70;99.90;;;;;;5009116;28;20520;-84
2021/06/11 14:18:09;;;;;;;1.70;0.70;;;24.60;99.90;;;;;;5008208;28;20054;-84
2021/06/11 14:20:36;;;;;;;1.45;0.80;;;24.60;99.90;;;;;;5028553;28;20045;-84
2021/06/11 14:23:05;;;;;;;3.45;0.60;;;24.70;99.90;;;;;;5026694;28;20115;-84
2021/06/11 14:25:32;;;;;;;;;;;24.70;99.90;;;;;;5000442;28;20042;-86
2021/06/11 14:28:03;;;;;;;0.63;0.50;;;24.60;99.90;;;;;;5010455;28;19964;-85
2021/06/11 14:30:30;;;;;;;2.08;0.68;;;24.60;99.90;;;;;;5029959;28;20527;-83
2021/06/11 14:32:58;;;;;;;0.63;0.60;;;24.70;99.90;;;;;;5010434;28;20057;-85
2021/06/11 14:35:26;;;;;;;0.65;0.65;;;24.60;99.90;;;;;;5028747;28;20124;-84
2021/06/11 14:37:53;;;;;;;1.75;0.60;;;24.70;99.90;;;;;;5029314;28;20041;-84
2021/06/11 14:40:21;;;;;;;2.70;0.90;;;24.70;99.90;;;;;;5029022;28;20056;-86
2021/06/11 14:42:50;;;;;;;0.70;0.70;;;24.60;99.90;;;;;;5014013;28;20108;-84
2021/06/11 14:45:17;;;;;;;1.67;0.70;;;24.50;99.90;;;;;;5006695;28;20107;-85
2021/06/11 14:47:44;;;;;;;0.82;0.60;;;24.50;99.90;;;;;;5006771;28;20096;-84
2021/06/11 14:50:11;;;;;;;0.60;0.60;;;24.40;99.90;;;;;;5016499;28;20103;-86
2021/06/11 14:52:44;;;;;;;2.38;0.70;;;24.40;99.90;;;;;;5016038;28;20401;-83
2021/06/11 14:55:12;;;;;;;0.68;0.68;;;24.40;99.90;;;;;;5032966;28;20103;-85
2021/06/11 14:57:41;;;;;;;2.72;0.88;;;24.40;99.90;;;;;;5015283;28;20111;-85
2021/06/11 15:00:10;;;;;;;1.52;0.70;;;24.30;99.90;;;;;;5013597;28;20103;-86
2021/06/11 15:02:42;;;;;;;0.80;0.55;;;24.20;99.90;;;;;;5032997;28;20446;-84
2021/06/11 15:05:11;;;;;;;1.38;0.60;;;24.10;99.90;;;;;;5031142;28;20037;-84
2021/06/11 15:07:39;;;;;;;1.77;0.60;;;24.20;99.90;;;;;;5013427;28;20108;-84
2021/06/11 15:10:06;;;;;;;1.58;0.80;;;24.30;99.90;;;;;;5033203;28;20049;-85
2021/06/11 15:12:34;;;;;;;0.75;0.60;;;24.40;99.90;;;;;;5017315;28;20404;-84
2021/06/11 15:15:01;;;;;;;1.58;0.70;;;24.60;99.90;;;;;;5032856;28;20458;-88
2021/06/11 15:17:28;;;;;;;0.95;0.68;;;24.60;99.90;;;;;;5030890;28;20045;-83
2021/06/11 15:19:57;;;;;;;3.22;0.98;;;24.70;99.90;;;;;;5031735;28;20096;-85
2021/06/11 15:22:24;;;;;;;0.80;0.80;;;24.70;99.90;;;;;;5014559;28;20050;-86
2021/06/11 15:24:51;;;;;;;1.63;1.02;;;24.60;99.90;;;;;;5017203;28;20053;-83
2021/06/11 15:27:18;;;;;;;1.20;0.90;;;24.60;99.90;;;;;;5014877;28;20053;-84
2021/06/11 15:29:45;;;;;;;1.10;1.00;;;24.50;99.90;;;;;;5030899;28;20049;-83
2021/06/11 15:32:12;;;;;;;1.85;0.80;;;24.30;99.90;;;;;;5031821;28;20514;-82
2021/06/11 15:34:39;;;;;;;1.10;1.00;;;24.20;99.90;;;;;;5013300;28;20100;-82
2021/06/11 15:37:06;;;;;;;2.95;1.00;;;24.20;99.90;;;;;;5014538;28;20589;-83
2021/06/11 15:39:33;;;;;;;2.22;1.05;;;24.30;99.90;;;;;;5013828;28;20045;-83
2021/06/11 15:42:00;;;;;;;0.60;0.60;;;24.30;99.90;;;;;;5030503;28;20049;-82
2021/06/11 15:44:27;;;;;;;1.17;0.90;;;24.40;99.90;;;;;;5015025;28;20038;-81
2021/06/11 15:46:54;;;;;;;1.85;0.88;;;24.40;99.90;;;;;;5015767;28;20569;-84
2021/06/11 15:49:21;;;;;;;3.42;1.08;;;24.40;99.90;;;;;;5014684;28;20049;-83
2021/06/11 15:51:48;;;;;;;2.20;1.30;;;24.30;99.90;;;;;;5016575;28;20080;-85
2021/06/11 15:54:15;;;;;;;2.40;1.30;;;24.30;99.90;;;;;;5013971;28;20099;-82
2021/06/11 15:56:42;;;;;;;3.35;1.48;;;24.10;99.90;;;;;;5014719;28;20077;-84
2021/06/11 15:59:09;;;;;;;2.42;2.10;;;24.10;99.90;;;;;;5031456;28;20123;-83
2021/06/11 16:01:36;;;;;;;4.72;2.03;;;24.10;99.90;;;;;;5014257;28;20046;-83
2021/06/11 16:04:04;;;;;;;2.50;2.30;;;24.20;99.90;;;;;;5014907;28;20042;-83
2021/06/11 16:06:31;;;;;;;2.28;2.05;;;24.20;99.90;;;;;;5015192;28;20104;-83
2021/06/11 16:08:58;;;;;;;2.95;2.50;;;24.10;99.90;;;;;;5014878;28;20091;-85
2021/06/11 16:11:25;;;;;;;3.53;2.80;;;24.10;99.90;;;;;;5002283;28;20080;-82
2021/06/11 16:13:52;;;;;;;4.43;2.53;;;23.90;99.90;;;;;;5007356;28;20112;-84
2021/06/11 16:16:19;;;;;;;3.28;2.97;;;23.90;99.90;;;;;;5009021;28;20116;-83
2021/06/11 16:18:48;;;;;;;3.17;2.78;;;23.80;99.90;;;;;;5027863;28;20068;-85
2021/06/11 16:21:15;;;;;;;6.15;3.03;;;23.80;99.90;;;;;;5024817;28;20049;-83
2021/06/11 16:23:42;;;;;;;3.60;3.05;;;23.70;99.90;;;;;;5025760;28;20091;-82
2021/06/11 16:26:09;;;;;;;3.30;3.00;;;23.50;99.90;;;;;;5026225;28;20107;-86
2021/06/11 16:28:36;;;;;;;4.22;3.80;;;23.50;99.90;;;;;;5008730;28;20049;-82
2021/06/11 16:31:06;;;;;;;3.85;3.55;;;23.10;99.90;;;;;;5023708;28;20053;-83
2021/06/11 16:33:38;;;;;;;3.90;3.50;;;23.10;99.90;;;;;;5010890;28;20121;-84
2021/06/11 16:36:05;;;;;;;4.30;3.65;;;23.00;99.90;;;;;;5009667;28;20076;-83
2021/06/11 16:38:32;;;;;;;6.57;3.95;;;22.90;99.90;;;;;;5004891;28;20045;-84
2021/06/11 16:40:59;;;;;;;4.85;4.00;;;22.90;99.90;;;;;;5024101;28;20500;-84
2021/06/11 16:43:26;;;;;;;4.30;3.90;;;22.90;99.90;;;;;;5009494;28;20049;-86
2021/06/11 16:45:53;;;;;;;5.75;3.53;;;23.00;99.90;;;;;;5009501;28;20550;-84
2021/06/11 16:48:21;;;;;;;4.03;3.55;;;23.10;99.90;;;;;;5010711;28;20060;-85
2021/06/11 16:50:48;;;;;;;4.15;3.28;;;23.00;99.90;;;;;;5023062;28;20104;-85
2021/06/11 16:53:15;;;;;;;3.90;3.50;;;22.90;99.90;;;;;;5016498;28;20049;-87
2021/06/11 16:55:43;;;;;;;4.00;3.20;;;22.80;99.90;;;;;;5009534;28;20061;-86
2021/06/11 16:58:10;;;;;;;4.97;3.00;;;22.80;99.90;;;;;;5009264;28;20049;-85
2021/06/11 17:00:37;;;;;;;3.58;2.60;;;22.70;99.90;;;;;;5023583;28;20100;-88
2021/06/11 17:03:04;;;;;;;3.03;2.65;;;22.70;99.90;;;;;;5009356;28;20085;-84
2021/06/11 17:05:33;;;;;;;5.28;2.70;;;22.60;99.90;;;;;;5023335;28;20080;-85
2021/06/11 17:08:00;;;;;;;4.30;2.30;;;22.60;99.90;;;;;;5008163;28;20045;-83
2021/06/11 17:10:27;;;;;;;5.53;2.78;;;22.60;99.90;;;;;;5016880;28;20107;-82
2021/06/11 17:12:55;;;;;;;5.32;2.80;;;22.70;99.90;;;;;;4998863;28;20586;-85
2021/06/11 17:15:23;;;;;;;4.40;3.10;;;22.70;99.90;;;;;;5006812;28;20046;-85
2021/06/11 17:17:51;;;;;;;4.05;2.75;;;22.60;99.90;;;;;;5022227;28;20045;-85
2021/06/11 17:20:24;;;;;;;6.40;3.23;;;22.60;99.90;;;;;;4996386;28;20050;-88
2021/06/11 17:22:56;;;;;;;5.13;2.78;;;22.60;99.90;;;;;;5004225;28;20061;-84
2021/06/11 17:25:29;;;;;;;4.75;2.78;;;22.50;99.90;;;;;;5008862;28;20081;-85
2021/06/11 17:28:13;;;;;;;3.38;2.97;;;22.50;99.90;;;;;;4997963;28;20428;-85
2021/06/11 17:30:40;;;;;;;3.45;2.90;;;22.40;99.90;;;;;;5023781;28;20504;-82
2021/06/11 17:33:31;;;;;;;3.03;2.72;;;22.30;99.90;;;;;;5007660;28;20046;-87
2021/06/11 17:36:00;;;;;;;2.88;2.65;;;22.30;99.90;;;;;;5006888;28;20050;-85
2021/06/11 17:38:27;;;;;;;;;;;22.30;99.90;;;;;;5018969;28;20041;-84
2021/06/11 17:41:01;;;;;;;3.08;2.42;;;22.40;99.90;;;;;;5003326;28;20387;-84
2021/06/11 17:43:27;;;;;;;3.08;2.45;;;22.50;99.90;;;;;;5025861;28;20100;-82
2021/06/11 17:45:54;;;;;;;5.68;2.50;;;22.50;99.90;;;;;;5025224;28;20508;-85
2021/06/11 17:48:27;;;;;;;4.97;2.60;;;22.50;99.90;;;;;;5009932;28;20045;-87
2021/06/11 17:50:57;;;;;;;4.00;2.25;;;22.70;99.90;;;;;;5014074;28;20052;-86
2021/06/11 17:53:32;;;;;;;2.45;1.70;;;22.80;99.90;;;;;;5010582;28;20053;-84
2021/06/11 17:56:24;;;;;;;2.38;2.17;;;23.10;99.90;;;;;;5022895;28;20048;-85
2021/06/11 17:59:03;;;;;;;2.00;1.75;;;23.50;99.90;;;;;;5023607;28;20099;-84
2021/06/11 18:01:30;;;;;;;3.28;1.75;;;23.70;99.90;;;;;;5005816;28;20042;-84
2021/06/11 18:04:01;;;;;;;3.72;1.75;;;23.90;99.90;;;;;;5031360;28;20065;-83
2021/06/11 18:06:28;;;;;;;2.58;1.27;;;24.30;99.90;;;;;;5010958;28;20554;-86
2021/06/11 18:08:56;;;;;;;3.65;1.50;;;24.80;99.90;;;;;;5012680;28;20184;-86
2021/06/11 18:11:24;;;;;;;2.67;1.50;;;24.90;99.90;;;;;;5013339;28;22068;-84
2021/06/11 18:13:54;;;;;;;1.73;1.40;;;25.00;99.90;;;;;;5030996;28;20053;-85
2021/06/11 18:16:30;;;;;;;1.60;1.50;;;24.80;99.90;;;;;;5029149;28;20077;-85
2021/06/11 18:19:10;;;;;;;1.30;1.20;;;24.80;99.90;;;;;;5012894;28;20420;-84
2021/06/11 18:21:42;;;;;;;2.33;1.20;;;25.00;99.90;;;;;;4994955;28;20066;-84
2021/06/11 18:24:09;;;;;;;1.20;1.10;;;25.40;99.90;;;;;;5009097;28;20100;-85
2021/06/11 18:26:58;;;;;;;1.45;1.10;;;25.30;99.90;;;;;;5013382;28;20041;-81
2021/06/11 18:29:49;;;;;;;2.03;1.10;;;25.50;99.90;;;;;;5006598;28;20115;-82
2021/06/11 18:32:35;;;;;;;1.23;1.10;;;25.50;99.90;;;;;;5007508;28;20053;-84
2021/06/11 18:35:08;;;;;;;1.50;1.17;;;25.50;99.90;;;;;;5006489;28;20046;-84
2021/06/11 18:37:44;;;;;;;1.95;1.00;;;25.50;99.90;;;;;;5007257;28;20037;-83
2021/06/11 18:40:23;;;;;;;1.45;1.13;;;25.30;99.90;;;;;;5003354;28;20405;-86
2021/06/11 18:42:54;;;;;;;1.83;1.27;;;25.40;99.90;;;;;;5007024;28;20100;-83
2021/06/11 18:45:24;;;;;;;1.58;1.48;;;25.20;99.90;;;;;;5008739;28;20133;-87
2021/06/11 18:48:22;;;;;;;1.88;1.77;;;25.10;99.90;;;;;;5007884;28;20156;-87
2021/06/11 18:50:51;;;;;;;3.05;1.85;;;25.00;99.90;;;;;;5008722;28;20050;-88
2021/06/11 18:53:21;;;;;;;2.90;2.20;;;24.80;99.90;;;;;;5006154;28;20111;-84
2021/06/11 18:55:53;;;;;;;2.25;2.05;;;24.70;99.90;;;;;;5010281;28;20050;-83
2021/06/11 18:58:30;;;;;;;2.05;1.88;;;24.60;99.90;;;;;;5026652;28;20057;-84
2021/06/11 19:00:59;;;;;;;2.42;2.22;;;24.60;99.90;;;;;;5030750;28;20060;-86
2021/06/11 19:03:27;;;;;;;2.47;2.28;;;24.40;99.90;;;;;;5030295;28;20115;-84
2021/06/11 19:06:04;;;;;;;2.75;2.53;;;24.20;99.90;;;;;;5009806;28;20045;-82
2021/06/11 19:08:45;;;;;;;2.75;2.47;;;23.70;99.90;;;;;;5027201;28;20041;-83
2021/06/11 19:11:29;;;;;;;4.05;3.03;;;23.10;99.90;;;;;;5009269;28;20512;-83
2021/06/11 19:13:59;;;;;;;4.32;3.92;;;22.30;99.90;;;;;;5011529;28;20081;-85
2021/06/11 19:16:32;;;;;;;5.50;4.20;;;21.50;99.90;;;;;;5009584;28;20064;-83
2021/06/11 19:19:08;;;;;;;5.63;4.78;;;20.70;99.90;;;;;;5006026;28;20045;-83
2021/06/11 19:22:04;;;;;;;6.75;5.75;;;20.00;99.90;;;;;;5005583;28;20042;-83
2021/06/11 19:24:42;;;;;;;9.85;6.68;;;19.50;99.90;;;;;;4995849;28;20042;-82
2021/06/11 19:27:16;;;;;;;10.82;7.20;;;19.00;99.90;;;;;;5007277;28;20046;-83
2021/06/11 19:29:43;;;;;;;8.70;6.88;;;18.60;99.90;;;;;;4999765;28;20054;-83
2021/06/11 19:32:10;;;;;;;10.50;7.53;;;18.20;99.90;;;;;;5006980;28;20050;-83
2021/06/11 19:34:38;;;;;;;12.65;8.55;;;18.00;99.90;;;;;;5009188;28;20058;-82
2021/06/11 19:37:05;;;;;;;10.35;7.18;;;17.80;99.90;;;;;;5012430;28;20111;-85
2021/06/11 19:39:40;;;;;;;14.10;8.35;;;17.60;99.90;;;;;;5008921;28;20042;-81
2021/06/11 19:42:19;;;;;;;10.75;8.07;;;17.50;99.90;;;;;;5007627;28;20042;-82
2021/06/11 19:45:20;;;;;;;11.27;7.70;;;17.40;99.90;;;;;;5009312;28;20046;-82
2021/06/11 19:48:09;;;;;;;11.65;8.00;;;17.30;99.90;;;;;;5011889;28;20120;-82
2021/06/11 19:50:42;;;;;;;12.15;8.15;;;17.10;99.90;;;;;;5009767;28;20057;-85
2021/06/11 19:53:11;;;;;;;11.10;8.43;;;17.00;99.90;;;;;;5009378;28;20130;-83
2021/06/11 19:55:46;;;;;;;11.60;8.23;;;16.90;99.90;;;;;;5011363;28;20114;-84
2021/06/11 19:58:21;;;;;;;13.48;7.90;;;16.90;99.90;;;;;;5022077;28;20049;-84
2021/06/11 20:01:12;;;;;;;10.45;8.07;;;16.80;99.90;;;;;;5003612;28;20057;-83
2021/06/11 20:03:42;;;;;;;9.45;7.20;;;16.70;99.90;;;;;;5025185;28;20463;-83
2021/06/11 20:06:14;;;;;;;10.43;7.28;;;16.70;99.90;;;;;;5005133;28;20127;-83
2021/06/11 20:08:42;;;;;;;9.57;6.68;;;16.70;99.90;;;;;;5008576;28;20099;-85
2021/06/11 20:11:09;;;;;;;12.27;7.25;;;16.70;99.90;;;;;;5002866;28;20053;-83
2021/06/11 20:13:41;;;;;;;12.97;7.43;;;16.60;99.90;;;;;;5005636;28;20057;-82
2021/06/11 20:16:09;;;;;;;9.85;6.55;;;16.60;99.90;;;;;;5002787;28;20115;-82
2021/06/11 20:18:37;;;;;;;11.60;7.05;;;16.60;99.90;;;;;;5011907;28;20140;-82
2021/06/11 20:21:07;;;;;;;11.00;6.53;;;16.50;99.90;;;;;;5005394;28;20058;-82
2021/06/11 20:23:35;;;;;;;9.75;6.55;;;16.50;99.90;;;;;;5006046;28;20037;-86
2021/06/11 20:26:05;;;;;;;10.40;6.55;;;16.50;99.90;;;;;;5023502;28;20134;-84
2021/06/11 20:28:33;;;;;;;9.82;7.03;;;16.50;99.90;;;;;;5008944;28;20050;-82
2021/06/11 20:31:02;;;;;;;8.98;6.68;;;16.50;99.90;;;;;;5025847;28;20143;-85
2021/06/11 20:33:29;;;;;;;;;;;16.50;99.90;;;;;;5008138;28;20046;-83